Flight Track Log - Related Links

Times and Time Zones

All times are in EST time to prevent confusion due to time zone crossing. See the N11SY flight status page for this flight to view local times or setup timezone preferences in your user account.

Time Position Orientation Groundspeed Altitude Reporting Facility
EST Latitude Longitude Course Direction KTS MPH feet Rate Location/Type
Tue 08:07:29 PM 36.2572 -95.7558 21° North 162 186 9,000  Level Kansas City Center
Tue 08:08:29 PM 36.3031 -95.7344 21° North 172 198 9,000  Level Kansas City Center
Tue 08:09:33 PM 36.3467 -95.7131 22° Northeast 170 196 9,000  Level Kansas City Center
Tue 08:10:33 PM 36.3772 -95.6675 50° Northeast 176 203 9,000  Level Kansas City Center
Tue 08:11:37 PM 36.3992 -95.6186 61° Northeast 170 196 9,000  Level Kansas City Center
Tue 08:12:37 PM 36.4194 -95.5700 63° Northeast 163 188 9,000  Level Kansas City Center
Tue 08:13:39 PM 36.4397 -95.5153 65° Northeast 166 191 9,000  Level Kansas City Center
Tue 08:14:40 PM 36.4653 -95.4586 61° Northeast 175 201 9,000  Level Kansas City Center
Tue 08:15:40 PM 36.4867 -95.3983 66° East 182 209 9,000  Level Kansas City Center
Tue 08:16:45 PM 36.5150 -95.3319 62° Northeast 185 213 9,000  Level Kansas City Center
Tue 08:17:44 PM 36.5408 -95.2706 62° Northeast 193 222 9,000  Level Kansas City Center
Tue 08:18:48 PM 36.5644 -95.2078 65° Northeast 196 226 9,000 Level Kansas City Center
Tue 08:20:00 PM 36.5850 -95.1374 70° East  Level FlightAware Approximate
Tue 08:27:00 PM 36.7043 -94.7264 70° East  Level FlightAware Approximate
Tue 08:28:00 PM 36.7370 -94.6791 58° Northeast  Level Estimated
Tue 08:29:00 PM 36.7697 -94.6317 60° Northeast  Level Estimated
Tue 08:30:00 PM 36.7884 -94.5736 68° East  Level FlightAware Approximate
Tue 08:34:00 PM 36.8762 -94.3391 60° Northeast  Level FlightAware Approximate
Tue 08:35:00 PM 36.9017 -94.2829 60° Northeast  Level FlightAware Approximate
Tue 08:36:00 PM 36.9280 -94.2273 58° Northeast  Level FlightAware Approximate
Tue 08:38:00 PM 36.9828 -94.1178 58° Northeast  Level FlightAware Approximate
Tue 08:42:00 PM 37.0831 -93.8894 60° Northeast  Level FlightAware Approximate
Tue 08:43:00 PM 37.1092 -93.8329 60° Northeast  Level FlightAware Approximate
Tue 08:44:00 PM 37.1364 -93.7773 58° Northeast  Level FlightAware Approximate
Tue 08:45:00 PM 37.1640 -93.7220 58° Northeast  Level FlightAware Approximate
Tue 08:46:00 PM 37.1914 -93.6665 59° Northeast  Level FlightAware Approximate
Tue 08:47:00 PM 37.2182 -93.6104 59° Northeast  Level FlightAware Approximate
Tue 08:48:00 PM 37.2449 -93.5544 59° Northeast  Level FlightAware Approximate
Tue 08:51:00 PM 37.3251 -93.3860 59° Northeast  Level FlightAware Approximate
Tue 08:52:00 PM 37.3529 -93.3313 29° Northeast  Level FlightAware Approximate
Tue 08:53:00 PM 37.3986 -93.3000 29° Northeast  Level FlightAware Approximate
Tue 08:54:00 PM 37.4443 -93.2687 29° Northeast  Level FlightAware Approximate
Tue 08:55:00 PM 37.4900 -93.2373 29° Northeast  Level FlightAware Approximate
Tue 08:56:00 PM 37.5357 -93.2058 29° Northeast  Level FlightAware Approximate
Tue 08:57:00 PM 37.5813 -93.1744 29° Northeast  Level FlightAware Approximate
Tue 08:58:00 PM 37.6268 -93.1424 31° Northeast  Level FlightAware Approximate
Tue 08:59:00 PM 37.6481 -93.0827 66° East  Level FlightAware Approximate
Tue 09:00:00 PM 37.6693 -93.0229 66° East  Level FlightAware Approximate
Tue 09:01:00 PM 37.6905 -92.9632 66° East  Level FlightAware Approximate
Tue 09:02:00 PM 37.7117 -92.9034 66° East  Level FlightAware Approximate
Tue 09:03:00 PM 37.7328 -92.8435 66° East  Level FlightAware Approximate
Tue 09:04:00 PM 37.7539 -92.7836 66° East  Level FlightAware Approximate
Tue 09:05:00 PM 37.7750 -92.7237 66° East  Level FlightAware Approximate
Tue 09:06:00 PM 37.8095 -92.6747 46° Northeast  Level Estimated
Tue 09:07:00 PM 37.8441 -92.6259 48° Northeast  Level FlightAware Approximate
Tue 09:08:00 PM 37.8788 -92.5770 48° Northeast  Level FlightAware Approximate
Tue 09:09:00 PM 37.9134 -92.5281 48° Northeast  Level FlightAware Approximate
Tue 09:11:00 PM 37.9830 -92.4283 48° Northeast  Level FlightAware Approximate
Tue 09:12:00 PM 38.0178 -92.3784 49° Northeast  Level FlightAware Approximate
Tue 09:13:00 PM 38.0525 -92.3283 49° Northeast  Level FlightAware Approximate
Tue 09:14:00 PM 38.0873 -92.2783 49° Northeast  Level FlightAware Approximate
Tue 09:15:00 PM 38.1220 -92.2282 49° Northeast  Level FlightAware Approximate
Tue 09:16:00 PM 38.1567 -92.1780 49° Northeast  Level FlightAware Approximate
Tue 09:17:00 PM 38.1913 -92.1278 49° Northeast  Level FlightAware Approximate
Tue 09:18:00 PM 38.2260 -92.0775 49° Northeast  Level FlightAware Approximate
Tue 09:19:00 PM 38.2606 -92.0272 49° Northeast  Level FlightAware Approximate
Tue 09:20:00 PM 38.2952 -91.9769 49° Northeast  Level FlightAware Approximate
Tue 09:21:00 PM 38.3298 -91.9265 49° Northeast  Level FlightAware Approximate
Tue 09:22:00 PM 38.3643 -91.8760 49° Northeast  Level FlightAware Approximate
Tue 09:23:00 PM 38.3989 -91.8255 49° Northeast  Level FlightAware Approximate
Tue 09:24:00 PM 38.4334 -91.7750 49° Northeast  Level FlightAware Approximate
Tue 09:25:00 PM 38.4679 -91.7244 49° Northeast  Level FlightAware Approximate
Tue 09:26:00 PM 38.5023 -91.6738 49° Northeast  Level FlightAware Approximate
Tue 09:27:00 PM 38.5368 -91.6231 49° Northeast  Level FlightAware Approximate
Tue 09:28:00 PM 38.5712 -91.5723 49° Northeast  Level FlightAware Approximate
Tue 09:29:00 PM 38.6056 -91.5216 49° Northeast  Level FlightAware Approximate
Tue 09:30:00 PM 38.6400 -91.4707 49° Northeast  Level FlightAware Approximate
Tue 09:31:00 PM 38.6744 -91.4198 49° Northeast  Level FlightAware Approximate
Tue 09:32:00 PM 38.7087 -91.3689 49° Northeast  Level FlightAware Approximate
Tue 09:33:00 PM 38.7430 -91.3179 49° Northeast  Level FlightAware Approximate
Tue 09:34:00 PM 38.7773 -91.2669 49° Northeast  Level FlightAware Approximate
Tue 09:35:00 PM 38.8116 -91.2158 49° Northeast  Level FlightAware Approximate
Tue 09:36:00 PM 38.8458 -91.1646 49° Northeast  Level FlightAware Approximate
Tue 09:37:00 PM 38.8800 -91.1134 49° Northeast  Level FlightAware Approximate
Tue 09:38:00 PM 38.9142 -91.0622 49° Northeast  Level FlightAware Approximate
Tue 09:39:00 PM 38.9483 -91.0109 49° Northeast  Level FlightAware Approximate
Tue 09:40:00 PM 38.9825 -90.9595 49° Northeast  Level FlightAware Approximate
Tue 09:41:00 PM 39.0166 -90.9081 49° Northeast  Level FlightAware Approximate
Tue 09:42:00 PM 39.0507 -90.8566 50° Northeast  Level FlightAware Approximate
Tue 09:43:00 PM 39.0847 -90.8051 50° Northeast  Level FlightAware Approximate
Tue 09:44:00 PM 39.1188 -90.7536 50° Northeast  Level FlightAware Approximate
Tue 09:45:00 PM 39.1528 -90.7020 50° Northeast  Level FlightAware Approximate
Tue 09:46:00 PM 39.1868 -90.6503 50° Northeast  Level FlightAware Approximate
Tue 09:47:00 PM 39.2208 -90.5986 50° Northeast  Level FlightAware Approximate
Tue 09:48:00 PM 39.2547 -90.5468 50° Northeast  Level FlightAware Approximate
Tue 09:49:00 PM 39.2887 -90.4950 50° Northeast  Level FlightAware Approximate
Tue 09:50:00 PM 39.3226 -90.4432 50° Northeast  Level FlightAware Approximate
Tue 09:50:23 PM 39.6164 -90.1244 50° Northeast 209 241 9,400  Level Chicago Center
Tue 09:51:00 PM 39.3564 -90.3913 50° Northeast  Level FlightAware Approximate
Tue 09:51:24 PM 39.6525 -90.0642 52° Northeast 211 243 9,400  Level Chicago Center
Tue 09:52:00 PM 39.3903 -90.3393 50° Northeast  Level FlightAware Approximate
Tue 09:52:29 PM 39.6906 -90.0000 52° Northeast 210 242 9,500  Level Kansas City Center
Tue 09:53:00 PM 39.4240 -90.2872 50° Northeast  Level FlightAware Approximate
Tue 09:53:30 PM 39.7308 -89.9322 52° Northeast 208 239 9,500  Level Kansas City Center
Tue 09:54:00 PM 39.4577 -90.2350 50° Northeast  Level FlightAware Approximate
Tue 09:54:31 PM 39.7661 -89.8722 53° Northeast 209 241 9,500  Level Kansas City Center
Tue 09:55:00 PM 39.4913 -90.1828 50° Northeast  Level FlightAware Approximate
Tue 09:55:32 PM 39.8019 -89.8122 52° Northeast 210 242 9,500  Level Kansas City Center
Tue 09:56:33 PM 39.8358 -89.7500 55° Northeast 211 243 9,500  Level Kansas City Center
Tue 09:57:34 PM 39.8736 -89.6867 52° Northeast 209 241 9,500  Level Kansas City Center
Tue 09:58:35 PM 39.9061 -89.6294 53° Northeast 209 241 9,500  Level Kansas City Center
Tue 09:59:35 PM 39.9417 -89.5689 53° Northeast 210 242 9,500  Level Kansas City Center
Tue 10:00:35 PM 39.9769 -89.5103 52° Northeast 208 239 9,500  Level Kansas City Center
Tue 10:01:37 PM 40.0119 -89.4528 52° Northeast 204 235 9,500  Level Kansas City Center
Tue 10:02:37 PM 40.0481 -89.3939 51° Northeast 207 238 9,500  Level Kansas City Center
Tue 10:03:37 PM 40.0822 -89.3350 53° Northeast 205 236 9,500  Level Kansas City Center
Tue 10:04:38 PM 40.1244 -89.2639 52° Northeast 207 238 9,500  Level Kansas City Center
Tue 10:05:38 PM 40.1586 -89.2050 53° Northeast 208 239 9,500  Level Chicago Center
Tue 10:06:39 PM 40.1936 -89.1444 53° Northeast 208 239 9,500  Level Chicago Center
Tue 10:07:39 PM 40.2286 -89.0856 52° Northeast 206 237 9,500  Level Chicago Center
Tue 10:08:40 PM 40.2644 -89.0283 51° Northeast 205 236 9,500  Level Chicago Center
Tue 10:09:41 PM 40.3000 -88.9714 51° Northeast 204 235 9,500  Level Chicago Center
Tue 10:10:42 PM 40.3361 -88.9125 51° Northeast 206 237 9,500  Level Chicago Center
Tue 10:11:43 PM 40.3711 -88.8564 51° Northeast 202 232 9,500  Level Chicago Center
Tue 10:12:44 PM 40.4081 -88.7981 50° Northeast 206 237 9,500  Level Chicago Center
Tue 10:13:45 PM 40.4431 -88.7394 52° Northeast 205 236 9,500  Level Chicago Center
Tue 10:14:46 PM 40.4811 -88.6781 51° Northeast 205 236 9,500  Level Chicago Center
Tue 10:15:46 PM 40.5169 -88.6178 52° Northeast 208 239 9,500  Level Chicago Center
Tue 10:16:47 PM 40.5531 -88.5600 51° Northeast 207 238 9,500  Level Chicago Center
Tue 10:17:48 PM 40.5892 -88.5003 51° Northeast 208 239 9,500  Level Chicago Center
Tue 10:18:49 PM 40.6244 -88.4411 52° Northeast 207 238 9,500  Level Chicago Center
Tue 10:19:50 PM 40.6594 -88.3808 53° Northeast 208 239 9,500  Level Chicago Center
Tue 10:20:51 PM 40.6953 -88.3217 51° Northeast 207 238 9,500  Level Chicago Center
Tue 10:21:51 PM 40.7375 -88.2500 52° Northeast 208 239 9,500  Level Chicago Center
Tue 10:22:52 PM 40.7725 -88.1900 52° Northeast 207 238 9,500  Level Chicago Center
Tue 10:23:53 PM 40.8064 -88.1286 54° Northeast 208 239 9,500  Level Chicago Center
Tue 10:24:54 PM 40.8397 -88.0708 53° Northeast 207 238 9,500 -49 Level Chicago Center
Tue 10:25:55 PM 40.8764 -88.0069 53° Northeast 210 242 9,400 -197 Descending Chicago Center
Tue 10:26:56 PM 40.9114 -87.9450 53° Northeast 212 244 9,100 -99 Descending Chicago Center
Tue 10:27:56 PM 40.9472 -87.8800 54° Northeast 217 250 9,200 -248 Climbing Chicago Center
Tue 10:28:57 PM 40.9822 -87.8178 53° Northeast 218 251 8,600 -1,820 Descending Chicago Center
Tue 10:29:58 PM 41.0219 -87.7553 50° Northeast 220 253 5,500 -1,525 Descending Chicago Center
Tue 10:30:59 PM 41.0564 -87.6939 53° Northeast 213 245 5,500 934 Level Chicago Center
Tue 10:32:00 PM 41.0939 -87.6350 50° Northeast 211 243 7,400 689 Climbing Chicago Center
Tue 10:33:01 PM 41.1283 -87.5789 51° Northeast 205 236 6,900 -934 Descending Chicago Center
Tue 10:34:02 PM 41.1708 -87.5111 50° Northeast 202 232 5,500 -1,377 Descending Chicago Center
Tue 10:36:00 PM 41.2303 -87.3988 55° Northeast  Level FlightAware Approximate
Tue 10:43:00 PM 41.4458 -87.0042 37° Northeast  Level FlightAware Approximate
Tue 10:44:00 PM 41.4500 -87.0000 37° Northeast  Level FlightAware Approximate
Tue 10:45:00 PM 41.4540 -87.0071 37° Northeast  Level Estimated
Tue 10:46:00 PM 41.4500 -87.0000 37° Northeast  Level FlightAware Approximate
Tue 10:47:00 PM 41.4540 -87.0071 37° Northeast  Level Estimated
Tue 10:48:00 PM 41.4500 -87.0000 37° Northeast  Level FlightAware Approximate
Tue 10:49:00 PM 41.4540 -87.0071 37° Northeast  Level Estimated
Tue 10:50:00 PM 41.4500 -87.0000 37° Northeast  Level FlightAware Approximate
Tue 10:51:00 PM 41.4540 -87.0071 37° Northeast  Level Estimated
Tue 10:52:00 PM 41.4500 -87.0000 37° Northeast  Level FlightAware Approximate
Tue 10:53:00 PM 41.4540 -87.0071 37° Northeast  Level Estimated
Tue 10:54:00 PM 41.4500 -87.0000 37° Northeast  Level FlightAware Approximate
Tue 10:55:00 PM 41.4540 -87.0071 37° Northeast  Level Estimated
Tue 10:56:00 PM 41.4500 -87.0000 37° Northeast  Level FlightAware Approximate
Tue 10:57:00 PM 41.4540 -87.0071 37° Northeast  Level Estimated
Tue 10:58:00 PM 41.4500 -87.0000 37° Northeast  Level FlightAware Approximate
Tue 10:59:00 PM 41.4540 -87.0071 37° Northeast  Level Estimated
Tue 11:00:00 PM 41.4500 -87.0000 37° Northeast  Level FlightAware Approximate
Tue 11:01:00 PM 41.4540 -87.0071 37° Northeast  Level Estimated
Tue 11:02:00 PM 41.4500 -87.0000 37° Northeast  Level FlightAware Approximate
Tue 11:03:00 PM 41.4540 -87.0071 37° Northeast  Level Estimated
Tue 11:04:00 PM 41.4500 -87.0000 37° Northeast  Level FlightAware Approximate
Tue 11:05:00 PM 41.4540 -87.0071 37° Northeast  Level Estimated
Tue 11:06:00 PM 41.4500 -87.0000 37° Northeast  Level FlightAware Approximate
Tue 11:07:00 PM 41.4540 -87.0071 37° Northeast  Level Estimated
Tue 11:08:00 PM 41.4500 -87.0000 37° Northeast  Level FlightAware Approximate

Login

Don't have an account? Register now (free) for customized features, flight alerts, and more!